Home   Weather   France   Besançon   Past weeks
Flag for France

Past Weather in Besançon, Bourgogne-Franche-Comté, France — Yesterday and Last 2 Weeks

Currently: 55 °F. Clear. (Weather station: Dole Tavaux, France). See more current weather

Past Weather in Besançon — Graph

°F

Besançon Temperature Yesterday

Maximum temperature yesterday: 73 °F (at 3:00 pm)
Minimum temperature yesterday: 54 °F (at 2:30 am)
Average temperature yesterday: 61 °F

High & Low Weather Summary for the Past Weeks

 TemperatureHumidityPressure
High79 °F (Sep 14, 4:30 pm)100% (Sep 14, 2:30 am)30.36 "Hg (Sep 14, 2:30 am)
Low46 °F (Sep 23, 6:00 am)36% (Sep 24, 5:00 pm)29.86 "Hg (Sep 18, 11:00 pm)
Average62 °F84%30.07 "Hg
* Reported Sep 13 9:00 pm — Sep 28 9:30 pm, Besançon. Weather by CustomWeather, © 2021

Note: Actual official high and low records may vary slightly from our data, if they occured in-between our weather recording intervals... More about our weather records

Besançon Weather History for the Previous 24 Hours

Scroll right to see more
 ConditionsComfort  
Time TempWeatherWind HumidityBarometerVisibility
9:30 pm
Tue, Sep 28
57 °FClear.2 mph88%30.12 "Hg10 mi
9:00 pm59 °FClear.3 mph82%30.12 "Hg10 mi
8:30 pm59 °FClear.No wind82%30.12 "Hg10 mi
8:00 pm61 °FSunny.3 mph77%30.12 "Hg10 mi
7:30 pm61 °FSunny.5 mph77%30.12 "Hg10 mi
7:00 pm63 °FSunny.5 mph73%30.12 "Hg10 mi
6:30 pm63 °FSunny.6 mph73%30.12 "Hg10 mi
6:00 pm64 °FSunny.6 mph64%30.12 "Hg10 mi
5:30 pm64 °FScattered clouds.7 mph68%30.12 "HgN/A
5:00 pm64 °FPassing clouds.7 mph68%30.12 "HgN/A
4:30 pm64 °FScattered clouds.8 mph64%30.12 "HgN/A
4:00 pm64 °FPartly sunny.9 mph68%30.12 "HgN/A
3:30 pm66 °FPartly sunny.7 mph64%30.12 "HgN/A
3:00 pm66 °FPartly sunny.8 mph64%30.15 "HgN/A
2:30 pm66 °FPassing clouds.10 mph64%30.15 "HgN/A
2:00 pm64 °FPassing clouds.14 mph60%30.15 "HgN/A
1:30 pm64 °FPassing clouds.10 mph68%30.15 "HgN/A
1:00 pm63 °FSunny.12 mph68%30.18 "Hg10 mi
12:30 pm63 °FPassing clouds.9 mph73%30.18 "HgN/A
12:00 pm63 °FPassing clouds.9 mph77%30.18 "HgN/A
11:30 am59 °FPassing clouds.7 mph88%30.21 "HgN/A
11:00 am59 °FPassing clouds.5 mph88%30.21 "HgN/A
10:30 am57 °FSunny.7 mph88%30.21 "Hg10 mi
10:00 am57 °FSunny.7 mph88%30.21 "Hg10 mi
9:30 am57 °FSunny.3 mph88%30.24 "Hg10 mi
9:00 am54 °FPassing clouds.2 mph94%30.21 "HgN/A
8:30 am50 °FDense fog.8 mph100%30.24 "Hg1 mi
8:00 am50 °FClear.6 mph94%30.24 "Hg10 mi
7:30 am48 °FClear.3 mph100%30.24 "Hg10 mi
7:00 am48 °FClear.5 mph94%30.24 "Hg10 mi
6:30 am48 °FClear.5 mph94%30.24 "Hg10 mi
6:00 am50 °FClear.3 mph94%30.24 "Hg10 mi
5:30 am50 °FClear.3 mph100%30.24 "Hg10 mi
5:00 am50 °FClear.3 mph94%30.24 "Hg10 mi
4:30 am50 °FClear.3 mph100%30.27 "Hg10 mi
4:00 am52 °FClear.3 mph94%30.27 "Hg10 mi
3:30 am52 °FClear.3 mph100%30.27 "Hg10 mi
3:00 am52 °FClear.5 mph94%30.27 "Hg10 mi
2:30 am52 °FPassing clouds.3 mph100%30.27 "HgN/A
2:00 am54 °FClear.2 mph94%30.27 "Hg10 mi
1:30 am55 °FClear.2 mph94%30.27 "Hg10 mi
1:00 am55 °FClear.2 mph94%30.27 "Hg10 mi
12:30 am57 °FClear.2 mph88%30.27 "Hg10 mi
12:00 am57 °FClear.3 mph88%30.27 "Hg10 mi
11:30 pm
Mon, Sep 27
59 °FClear.No wind77%30.27 "Hg10 mi
11:00 pm59 °FClear.1 mph77%30.27 "Hg10 mi
10:30 pm61 °FPassing clouds.3 mph68%30.24 "HgN/A
10:00 pm61 °FPassing clouds.5 mph72%30.21 "HgN/A
Weather by CustomWeather, © 2021

See weather overview